Time;durP1;ratioP1;P1;durP2;ratioP2;P2;SDS_P1;SDS_P2;PMS_P1;PMS_P2;Temp;Humidity;BMP_temperature;BMP_pressure;BME280_temperature;BME280_humidity;BME280_pressure;Samples;Min_cycle;Max_cycle;Signal;HPM_P1;HPM_P2
2021/11/04 00:01:46;;;;;;;29.17;13.93;;;;;;;14.74;50.92;100142.03;5022604;28;20084;-58
2021/11/04 00:04:12;;;;;;;25.98;12.93;;;;;;;14.72;51.26;100135.94;5024925;28;20032;-58
2021/11/04 00:06:37;;;;;;;25.15;12.63;;;;;;;14.70;50.85;100133.44;5022384;28;20033;-57
2021/11/04 00:09:03;;;;;;;24.33;12.30;;;;;;;14.71;50.73;100134.28;5024431;28;20047;-57
2021/11/04 00:11:28;;;;;;;33.33;12.82;;;;;;;14.69;51.55;100137.13;5005101;28;20025;-58
2021/11/04 00:13:54;;;;;;;25.63;11.90;;;;;;;14.70;51.49;100135.28;5020609;28;20034;-58
2021/11/04 00:16:19;;;;;;;32.03;13.18;;;;;;;14.70;51.46;100124.50;5013685;28;20096;-58
2021/11/04 00:18:44;;;;;;;26.45;12.23;;;;;;;14.68;51.01;100110.38;5013646;28;20152;-58
2021/11/04 00:21:10;;;;;;;26.38;12.75;;;;;;;14.70;50.00;100125.34;5023122;28;20430;-58
2021/11/04 00:23:35;;;;;;;29.15;13.75;;;;;;;14.69;50.09;100125.50;5034201;28;20025;-58
2021/11/04 00:26:01;;;;;;;29.02;13.23;;;;;;;14.66;50.88;100117.75;5034241;28;20410;-63
2021/11/04 00:28:27;;;;;;;24.75;12.65;;;;;;;14.68;51.55;100122.00;5015812;28;20033;-58
2021/11/04 00:30:52;;;;;;;30.63;12.23;;;;;;;14.67;51.46;100116.75;5034061;28;20474;-58
2021/11/04 00:33:17;;;;;;;24.55;12.40;;;;;;;14.64;50.48;100103.63;5016233;28;20030;-57
2021/11/04 00:35:43;;;;;;;28.38;12.40;;;;;;;14.64;50.06;100109.00;5033696;28;20041;-58
2021/11/04 00:38:09;;;;;;;37.53;12.88;;;;;;;14.64;51.34;100114.41;5034116;28;20084;-57
2021/11/04 00:40:35;;;;;;;25.38;13.00;;;;;;;14.64;50.02;100103.63;5035509;28;20021;-58
2021/11/04 00:43:00;;;;;;;28.77;13.75;;;;;;;14.63;50.24;100099.28;5037736;28;20083;-59
2021/11/04 00:45:25;;;;;;;27.42;11.95;;;;;;;14.60;51.04;100094.22;5037782;28;20029;-58
2021/11/04 00:47:51;;;;;;;26.67;12.90;;;;;;;14.60;50.12;100092.34;5037341;28;20033;-58
2021/11/04 00:50:19;;;;;;;35.00;14.65;;;;;;;14.61;50.04;100085.09;5037495;28;20030;-58
2021/11/04 00:52:45;;;;;;;24.63;11.93;;;;;;;14.61;50.17;100087.78;5037585;28;20071;-57
2021/11/04 00:55:11;;;;;;;27.73;13.40;;;;;;;14.61;51.29;100088.63;5019819;28;20025;-58
2021/11/04 00:57:37;;;;;;;27.83;13.43;;;;;;;14.60;50.16;100092.34;5037265;28;20029;-57
2021/11/04 01:00:08;;;;;;;26.75;13.88;;;;;;;14.60;51.24;100092.34;5037480;28;20044;-59
2021/11/04 01:02:33;;;;;;;28.25;13.00;;;;;;;14.60;51.36;100095.03;5037636;28;20048;-58
2021/11/04 01:04:58;;;;;;;23.77;12.90;;;;;;;14.60;50.43;100086.94;5037019;28;20025;-58
2021/11/04 01:07:24;;;;;;;33.35;14.68;;;;;;;14.60;51.43;100096.91;5036783;28;20116;-58
2021/11/04 01:09:49;;;;;;;34.20;14.40;;;;;;;14.58;50.67;100100.59;5037276;28;20033;-57
2021/11/04 01:12:15;;;;;;;37.13;14.52;;;;;;;14.60;49.98;100107.69;5019441;28;20029;-58
2021/11/04 01:14:41;;;;;;;36.47;14.75;;;;;;;14.59;50.84;100106.84;5037008;28;20100;-57
2021/11/04 01:17:06;;;;;;;30.40;13.00;;;;;;;14.58;50.13;100114.09;5037171;28;20033;-57
2021/11/04 01:19:32;;;;;;;26.70;13.35;;;;;;;14.57;51.61;100112.41;5037033;28;20032;-58
2021/11/04 01:21:58;;;;;;;34.65;14.32;;;;;;;14.57;51.58;100120.47;5019462;28;20017;-58
2021/11/04 01:24:23;;;;;;;28.52;13.30;;;;;;;14.56;49.92;100124.22;5036703;28;20079;-58
2021/11/04 01:26:48;;;;;;;32.47;13.65;;;;;;;14.57;50.13;100131.25;5036727;28;20482;-58
2021/11/04 01:29:14;;;;;;;27.42;13.75;;;;;;;14.58;50.31;100137.50;5036899;28;20029;-57
2021/11/04 01:31:39;;;;;;;28.73;13.77;;;;;;;14.59;51.31;100139.19;5018951;28;20018;-59
2021/11/04 01:34:06;;;;;;;30.15;15.25;;;;;;;14.56;51.31;100137.69;5036769;28;20112;-57
2021/11/04 01:36:31;;;;;;;26.40;12.35;;;;;;;14.58;51.42;100135.66;5036318;28;20045;-58
2021/11/04 01:38:57;;;;;;;30.13;13.60;;;;;;;14.58;50.26;100138.34;5036537;28;20034;-58
2021/11/04 01:41:22;;;;;;;31.67;13.27;;;;;;;14.58;49.91;100138.34;5036280;28;20382;-58
2021/11/04 01:43:47;;;;;;;26.42;12.43;;;;;;;14.57;50.11;100133.97;5036579;28;20122;-57
2021/11/04 01:46:13;;;;;;;31.40;14.48;;;;;;;14.58;50.88;100137.50;5036446;28;20381;-58
2021/11/04 01:48:39;;;;;;;30.83;13.18;;;;;;;14.58;51.30;100143.75;5036546;28;20363;-63
2021/11/04 01:51:05;;;;;;;28.65;13.68;;;;;;;14.55;51.31;100138.69;5036276;28;20445;-58
2021/11/04 01:53:30;;;;;;;27.20;12.77;;;;;;;14.57;51.37;100150.13;5036265;28;20100;-57
2021/11/04 01:55:55;;;;;;;41.05;13.18;;;;;;;14.55;49.91;100146.78;5036522;28;20022;-58
2021/11/04 01:58:21;;;;;;;30.38;12.88;;;;;;;14.52;51.54;100143.56;5018718;28;20029;-57
2021/11/04 02:00:46;;;;;;;26.40;11.77;;;;;;;14.53;49.87;100153.34;5036510;28;20378;-58
2021/11/04 02:03:25;;;;;;;28.27;13.20;;;;;;;14.55;50.93;100151.31;5036135;28;20032;-57
2021/11/04 02:06:09;;;;;;;29.92;12.55;;;;;;;14.54;50.47;100153.16;5036603;28;20543;-58
2021/11/04 02:08:54;;;;;;;29.13;13.05;;;;;;;14.53;50.06;100147.97;5036340;28;20036;-58
2021/11/04 02:11:22;;;;;;;29.65;13.63;;;;;;;14.52;50.61;100154.34;5018224;28;20018;-58
2021/11/04 02:14:05;;;;;;;32.63;14.43;;;;;;;14.51;49.82;100150.84;5018554;28;20033;-57
2021/11/04 02:16:32;;;;;;;36.83;14.13;;;;;;;14.51;49.92;100152.69;5035989;28;20025;-58
2021/11/04 02:19:01;;;;;;;38.33;15.15;;;;;;;14.51;50.95;100155.38;5036168;28;20041;-58
2021/11/04 02:22:05;;;;;;;35.33;15.20;;;;;;;14.52;51.18;100146.25;5035741;28;20018;-58
2021/11/04 02:24:38;;;;;;;35.35;14.35;;;;;;;14.52;50.01;100148.97;5017585;28;20090;-58
2021/11/04 02:27:06;;;;;;;34.67;13.45;;;;;;;14.52;50.15;100139.03;5017840;28;20080;-57
2021/11/04 02:29:32;;;;;;;36.03;14.80;;;;;;;14.52;50.97;100144.41;5018195;28;20034;-58
2021/11/04 02:31:58;;;;;;;36.38;15.30;;;;;;;14.50;50.65;100149.16;5018162;28;20030;-57
2021/11/04 02:34:23;;;;;;;31.48;14.30;;;;;;;14.51;51.39;100148.16;5001556;28;20026;-57
2021/11/04 02:36:49;;;;;;;35.28;13.95;;;;;;;14.50;51.25;100145.59;5017931;28;20501;-57
2021/11/04 02:39:15;;;;;;;35.38;14.48;;;;;;;14.50;50.29;100145.59;5017648;28;20484;-58
2021/11/04 02:41:40;;;;;;;36.50;14.10;;;;;;;14.48;49.97;100137.72;5017571;28;20021;-58
2021/11/04 02:44:11;;;;;;;31.00;14.93;;;;;;;14.48;51.07;100148.47;5017658;28;20474;-57
2021/11/04 02:46:37;;;;;;;32.58;14.18;;;;;;;14.45;50.61;100147.97;5035269;28;20032;-58
2021/11/04 02:49:04;;;;;;;34.85;14.43;;;;;;;14.50;50.31;100154.53;5017545;28;20475;-58
2021/11/04 02:51:31;;;;;;;29.88;12.77;;;;;;;14.49;51.25;100160.94;5035091;28;20025;-58
2021/11/04 02:53:56;;;;;;;30.65;12.82;;;;;;;14.49;50.01;100160.94;5017333;28;20029;-58
2021/11/04 02:56:21;;;;;;;32.20;14.13;;;;;;;14.49;51.02;100160.94;5035095;28;20040;-58
2021/11/04 02:58:47;;;;;;;32.95;13.18;;;;;;;14.49;50.91;100171.72;5035006;28;20470;-58
2021/11/04 03:01:12;;;;;;;35.92;13.15;;;;;;;14.48;51.43;100170.03;5034871;28;20083;-58
2021/11/04 03:03:38;;;;;;;29.90;14.57;;;;;;;14.47;49.83;100179.13;5034542;28;20075;-58
2021/11/04 03:06:03;;;;;;;39.33;14.35;;;;;;;14.48;50.73;100185.38;5035091;28;20017;-57
2021/11/04 03:08:30;;;;;;;37.00;14.35;;;;;;;14.45;49.86;100181.16;5017342;28;20021;-58
2021/11/04 03:10:56;;;;;;;29.42;13.35;;;;;;;14.44;51.14;100178.63;5034459;28;20025;-57
2021/11/04 03:13:21;;;;;;;33.50;14.10;;;;;;;14.46;49.75;100188.22;5034347;28;20036;-58
2021/11/04 03:15:51;;;;;;;35.55;14.35;;;;;;;14.44;50.33;100184.00;5016980;28;20024;-57
2021/11/04 03:18:17;;;;;;;41.80;14.43;;;;;;;14.42;49.99;100181.50;5017175;28;20025;-58
2021/11/04 03:20:45;;;;;;;40.10;16.20;;;;;;;14.44;50.80;100182.16;5034852;28;20021;-58
2021/11/04 03:23:10;;;;;;;38.25;14.32;;;;;;;14.44;50.07;100174.06;5034616;28;20029;-57
2021/11/04 03:25:36;;;;;;;45.72;15.50;;;;;;;14.44;50.13;100168.69;5017132;28;20164;-58
2021/11/04 03:28:02;;;;;;;40.28;15.88;;;;;;;14.43;49.89;100169.69;5034449;28;20591;-58
2021/11/04 03:30:34;;;;;;;38.20;15.40;;;;;;;14.43;51.35;100172.38;5034601;28;20029;-57
2021/11/04 03:32:59;;;;;;;43.97;15.32;;;;;;;14.41;49.64;100166.31;5034372;28;20028;-58
2021/11/04 03:35:29;;;;;;;42.58;15.60;;;;;;;14.41;50.87;100166.31;5034825;28;20017;-57
2021/11/04 03:37:56;;;;;;;34.83;14.52;;;;;;;14.43;51.20;100177.78;5034466;28;20449;-57
2021/11/04 03:40:21;;;;;;;39.03;15.90;;;;;;;14.40;51.25;100171.91;5016683;28;20028;-58
2021/11/04 03:42:49;;;;;;;29.48;14.15;;;;;;;14.39;50.67;100164.81;5034521;28;20026;-58
2021/11/04 03:45:15;;;;;;;42.83;15.27;;;;;;;14.40;49.67;100175.44;5016764;28;20017;-58
2021/11/04 03:47:42;;;;;;;34.78;14.63;;;;;;;14.40;50.76;100178.13;5016381;28;20386;-58
2021/11/04 03:50:09;;;;;;;51.50;14.73;;;;;;;14.39;50.88;100181.84;5016386;28;20025;-58
2021/11/04 03:52:38;;;;;;;40.72;15.88;;;;;;;14.37;51.00;100177.63;5000272;28;20021;-58
2021/11/04 03:55:04;;;;;;;34.13;14.68;;;;;;;14.37;49.88;100178.47;5016452;28;20029;-57
2021/11/04 03:57:29;;;;;;;42.85;15.05;;;;;;;14.35;50.92;100169.69;5016624;28;20056;-57
2021/11/04 03:59:55;;;;;;;37.40;15.90;;;;;;;14.33;49.93;100179.81;5034257;28;20026;-58
2021/11/04 04:02:22;;;;;;;42.65;15.07;;;;;;;14.35;51.32;100182.34;5016394;28;20045;-58
2021/11/04 04:04:57;;;;;;;44.70;14.82;;;;;;;14.34;49.72;100173.44;5034070;28;20378;-57
2021/11/04 04:07:29;;;;;;;41.72;16.13;;;;;;;14.34;49.82;100181.50;5033673;28;20029;-58
2021/11/04 04:09:55;;;;;;;41.22;14.57;;;;;;;14.33;49.57;100177.13;5009866;28;20041;-57
2021/11/04 04:12:20;;;;;;;42.83;15.43;;;;;;;14.34;50.74;100178.81;5013878;28;20451;-57
2021/11/04 04:14:46;;;;;;;40.97;14.88;;;;;;;14.32;49.79;100170.03;5006055;28;20061;-57
2021/11/04 04:17:11;;;;;;;39.85;16.27;;;;;;;14.33;49.53;100166.34;5008457;28;20406;-57
2021/11/04 04:19:37;;;;;;;42.83;15.30;;;;;;;14.33;50.70;100165.50;5018289;28;20104;-58
2021/11/04 04:22:03;;;;;;;48.80;17.05;;;;;;;14.34;50.27;100173.44;5018250;28;20025;-58
2021/11/04 04:24:28;;;;;;;39.42;15.43;;;;;;;14.35;51.02;100167.00;5003700;28;20104;-57
2021/11/04 04:26:54;;;;;;;38.17;14.77;;;;;;;14.36;50.54;100171.41;4998567;28;20460;-58
2021/11/04 04:29:19;;;;;;;40.95;15.75;;;;;;;14.36;51.14;100170.53;4998587;28;20039;-58
2021/11/04 04:31:44;;;;;;;38.97;16.17;;;;;;;14.36;51.09;100170.53;4998136;28;20499;-58
2021/11/04 04:34:11;;;;;;;36.97;14.88;;;;;;;14.35;51.14;100172.38;4998315;28;20431;-58
2021/11/04 04:36:36;;;;;;;30.42;14.27;;;;;;;14.36;50.72;100176.78;4997984;28;20061;-58
2021/11/04 04:39:03;;;;;;;38.20;15.43;;;;;;;14.35;50.60;100177.78;4998074;28;20030;-57
2021/11/04 04:41:28;;;;;;;33.03;15.18;;;;;;;14.35;50.14;100180.47;4980788;28;20025;-58
2021/11/04 04:43:53;;;;;;;35.00;14.40;;;;;;;14.36;50.01;100187.56;4998329;28;20027;-58
2021/11/04 04:46:20;;;;;;;36.85;14.98;;;;;;;14.36;50.96;100201.03;4980614;28;20033;-57
2021/11/04 04:48:45;;;;;;;38.65;14.70;;;;;;;14.36;50.71;100186.72;4980637;28;20121;-58
2021/11/04 04:51:11;;;;;;;37.58;14.63;;;;;;;14.33;49.99;100187.91;4997815;28;20026;-57
2021/11/04 04:53:36;;;;;;;36.08;14.07;;;;;;;14.36;50.96;100194.78;4998230;28;20022;-57
2021/11/04 04:56:02;;;;;;;28.73;14.00;;;;;;;14.36;50.07;100198.34;4997974;28;20384;-57
2021/11/04 04:58:28;;;;;;;32.60;13.52;;;;;;;14.36;51.19;100197.50;4998203;28;20074;-58
2021/11/04 05:00:53;;;;;;;30.73;13.25;;;;;;;14.33;51.18;100198.66;4998064;28;20056;-58
2021/11/04 05:03:19;;;;;;;29.65;13.02;;;;;;;14.33;50.27;100195.97;4997902;28;20026;-58
2021/11/04 05:05:44;;;;;;;27.23;12.55;;;;;;;14.32;51.10;100201.53;4998308;28;20108;-58
2021/11/04 05:08:10;;;;;;;27.67;12.45;;;;;;;14.33;51.45;100209.44;4997703;28;20030;-58
2021/11/04 05:10:35;;;;;;;30.05;14.48;;;;;;;14.32;50.91;100202.38;5014607;28;20021;-58
2021/11/04 05:13:00;;;;;;;28.52;13.27;;;;;;;14.35;51.12;100217.38;5016965;28;20026;-58
2021/11/04 05:15:26;;;;;;;28.98;13.90;;;;;;;14.35;51.17;100209.28;5017204;28;20040;-58
2021/11/04 05:17:51;;;;;;;31.08;13.68;;;;;;;14.37;51.05;100216.19;5017259;28;20064;-57
2021/11/04 05:20:17;;;;;;;32.85;14.65;;;;;;;14.34;50.42;100216.53;5017134;28;20112;-58
2021/11/04 05:22:42;;;;;;;31.65;13.52;;;;;;;14.37;50.37;100226.97;5017238;28;20026;-57
2021/11/04 05:25:08;;;;;;;38.30;14.30;;;;;;;14.34;50.86;100227.31;5016792;28;20029;-57
2021/11/04 05:27:33;;;;;;;34.33;14.02;;;;;;;14.37;49.92;100240.44;5016875;28;20064;-57
2021/11/04 05:29:59;;;;;;;34.72;15.02;;;;;;;14.37;50.01;100232.38;5017341;28;20058;-58
2021/11/04 05:32:24;;;;;;;36.20;15.40;;;;;;;14.37;50.48;100237.75;4999201;28;20079;-58
2021/11/04 05:34:50;;;;;;;35.97;15.52;;;;;;;14.35;51.30;100231.66;5016723;28;20509;-57
2021/11/04 05:37:15;;;;;;;36.45;16.35;;;;;;;14.41;50.23;100238.22;4984461;28;20042;-57
2021/11/04 05:39:41;;;;;;;44.78;17.58;;;;;;;14.41;50.97;100239.09;4997617;28;20069;-57
2021/11/04 05:42:07;;;;;;;38.42;14.18;;;;;;;14.38;51.29;100236.72;4997111;28;20026;-57
2021/11/04 05:44:35;;;;;;;37.47;15.88;;;;;;;14.43;50.03;100245.13;4997533;28;20450;-58
2021/11/04 05:47:00;;;;;;;38.20;15.68;;;;;;;14.41;50.73;100244.47;4996973;28;20034;-57
2021/11/04 05:49:26;;;;;;;36.05;16.17;;;;;;;14.43;49.96;100242.44;4996900;28;20026;-58
2021/11/04 05:51:51;;;;;;;42.15;18.35;;;;;;;14.45;50.54;100245.00;4996730;28;20077;-58
2021/11/04 05:54:16;;;;;;;36.17;15.85;;;;;;;14.44;51.25;100243.28;4996472;28;20026;-58
2021/11/04 05:56:42;;;;;;;45.20;17.17;;;;;;;14.44;51.16;100249.53;4996884;28;20026;-57
2021/11/04 05:59:07;;;;;;;42.95;17.08;;;;;;;14.48;50.00;100250.88;4996749;28;20026;-57
2021/11/04 06:01:33;;;;;;;41.30;15.93;;;;;;;14.47;50.33;100249.19;4996249;28;20022;-57
2021/11/04 06:03:58;;;;;;;39.65;15.75;;;;;;;14.50;50.23;100254.25;4996481;28;20033;-58
2021/11/04 06:06:24;;;;;;;47.78;17.77;;;;;;;14.51;50.97;100255.09;4979212;28;20073;-58
2021/11/04 06:08:49;;;;;;;46.05;16.67;;;;;;;14.48;50.15;100256.28;4996464;28;20101;-58
2021/11/04 06:11:14;;;;;;;41.42;15.88;;;;;;;14.49;50.01;100251.72;4979195;28;20030;-57
2021/11/04 06:13:40;;;;;;;41.97;16.15;;;;;;;14.50;51.48;100251.56;4996469;28;20026;-58
2021/11/04 06:16:12;;;;;;;38.35;16.27;;;;;;;14.51;51.34;100250.56;4996413;28;20082;-58
2021/11/04 06:18:37;;;;;;;37.00;16.05;;;;;;;14.53;49.93;100245.84;4996146;28;20028;-58
2021/11/04 06:21:03;;;;;;;36.83;16.35;;;;;;;14.52;50.69;100249.53;4996547;28;20449;-58
2021/11/04 06:23:28;;;;;;;38.22;16.40;;;;;;;14.57;51.56;100244.47;4996350;28;20059;-57
2021/11/04 06:25:54;;;;;;;35.30;15.52;;;;;;;14.59;50.92;100252.41;4996633;28;20034;-58
2021/11/04 06:28:19;;;;;;;37.53;17.05;;;;;;;14.62;51.14;100248.53;4996850;28;20113;-58
2021/11/04 06:30:44;;;;;;;39.15;15.85;;;;;;;14.62;51.13;100251.22;4996966;28;20034;-57
2021/11/04 06:33:10;;;;;;;41.90;16.75;;;;;;;14.60;50.32;100247.84;4978595;28;20038;-58
2021/11/04 06:35:35;;;;;;;37.47;17.60;;;;;;;14.64;51.27;100255.41;4977622;28;20038;-57
2021/11/04 06:38:00;;;;;;;40.58;15.05;;;;;;;14.66;50.71;100263.31;4995112;28;20035;-58
2021/11/04 06:40:27;;;;;;;33.40;14.80;;;;;;;14.62;51.51;100262.00;4995967;28;20066;-58
2021/11/04 06:42:53;;;;;;;37.88;16.02;;;;;;;14.65;50.08;100267.91;4996209;28;20134;-58
2021/11/04 06:45:18;;;;;;;39.55;14.27;;;;;;;14.66;51.53;100266.88;4996210;28;20444;-58
2021/11/04 06:47:50;;;;;;;38.70;15.82;;;;;;;14.67;51.13;100273.09;4996491;28;20109;-57
2021/11/04 06:50:17;;;;;;;34.88;14.73;;;;;;;14.68;50.35;100264.03;4996395;28;20034;-58
2021/11/04 06:52:50;;;;;;;31.23;13.82;;;;;;;14.67;49.98;100282.03;4996242;28;20150;-58
2021/11/04 06:55:16;;;;;;;31.67;13.10;;;;;;;14.67;50.24;100282.03;4979173;28;20029;-58
2021/11/04 06:57:43;;;;;;;36.60;15.25;;;;;;;14.68;50.19;100282.91;4996087;28;20097;-57
2021/11/04 07:00:11;;;;;;;33.10;14.40;;;;;;;14.68;50.10;100277.50;4995879;28;20022;-58
2021/11/04 07:02:38;;;;;;;33.53;15.00;;;;;;;14.70;51.00;100278.16;4962686;28;20534;-58
2021/11/04 07:05:05;;;;;;;37.67;16.00;;;;;;;14.70;51.46;100286.25;4995943;28;20019;-58
2021/11/04 07:07:38;;;;;;;35.97;14.85;;;;;;;14.70;50.99;100286.25;4995794;28;20487;-58
2021/11/04 07:10:07;;;;;;;32.20;14.57;;;;;;;14.71;51.28;100291.50;4995542;28;20536;-58
2021/11/04 07:12:32;;;;;;;38.38;15.52;;;;;;;14.73;51.30;100292.16;4995160;28;20034;-58
2021/11/04 07:14:58;;;;;;;34.80;15.48;;;;;;;14.75;51.44;100294.66;4977842;28;20057;-58
2021/11/04 07:17:24;;;;;;;39.35;16.45;;;;;;;14.75;50.20;100284.72;4995232;28;20026;-58
2021/11/04 07:19:49;;;;;;;37.92;15.68;;;;;;;14.78;51.38;100303.28;4978281;28;20399;-58
2021/11/04 07:22:35;;;;;;;37.70;14.55;;;;;;;14.79;51.57;100301.41;4977845;28;20019;-58
2021/11/04 07:25:10;;;;;;;34.03;14.63;;;;;;;14.78;51.38;100299.72;4995572;28;20502;-58
2021/11/04 07:28:03;;;;;;;35.08;14.82;;;;;;;14.78;50.33;100299.72;4995615;28;20061;-58
2021/11/04 07:30:29;;;;;;;34.13;15.10;;;;;;;14.79;50.32;100301.41;4995228;28;20067;-58
2021/11/04 07:32:57;;;;;;;37.17;15.55;;;;;;;14.79;50.73;100301.41;4995514;28;20085;-58
2021/11/04 07:35:25;;;;;;;40.53;16.05;;;;;;;14.81;50.31;100305.63;4995661;28;20065;-58
2021/11/04 07:37:51;;;;;;;34.30;15.75;;;;;;;14.83;50.53;100313.53;4994827;28;20073;-58
2021/11/04 07:40:20;;;;;;;39.47;16.35;;;;;;;14.86;51.73;100313.19;4995255;28;20109;-58
2021/11/04 07:42:46;;;;;;;33.30;16.30;;;;;;;14.83;51.35;100309.00;4995344;28;20109;-57
2021/11/04 07:45:12;;;;;;;34.05;17.67;;;;;;;14.79;51.37;100309.50;5010513;28;20449;-58
2021/11/04 07:47:42;;;;;;;35.53;16.65;;;;;;;14.82;51.70;100322.66;5025078;28;20101;-58
2021/11/04 07:50:08;;;;;;;42.60;16.90;;;;;;;14.84;51.65;100320.63;4997649;28;20052;-57
2021/11/04 07:52:34;;;;;;;39.72;16.20;;;;;;;14.87;50.17;100323.84;5014479;28;20026;-57
2021/11/04 07:55:04;;;;;;;34.38;16.58;;;;;;;14.88;50.24;100313.91;5021537;28;20017;-58
2021/11/04 07:57:31;;;;;;;40.75;18.33;;;;;;;14.88;50.02;100316.59;5031073;28;20033;-58
2021/11/04 07:59:56;;;;;;;36.38;16.83;;;;;;;14.95;50.79;100317.59;5034384;28;20021;-57
2021/11/04 08:02:21;;;;;;;34.33;16.05;;;;;;;14.99;50.76;100327.03;5033851;28;20040;-58
2021/11/04 08:04:47;;;;;;;34.15;16.83;;;;;;;14.99;51.39;100329.72;5033897;28;20088;-58
2021/11/04 08:07:12;;;;;;;34.00;15.30;;;;;;;15.02;51.30;100335.59;5034361;28;20025;-57
2021/11/04 08:09:38;;;;;;;36.30;15.85;;;;;;;15.06;50.14;100333.44;5033953;28;20033;-59
2021/11/04 08:12:03;;;;;;;38.03;15.65;;;;;;;15.08;50.03;100331.38;5034153;28;20025;-58
2021/11/04 08:14:29;;;;;;;38.83;16.65;;;;;;;15.10;51.60;100334.78;5016079;28;20116;-58
2021/11/04 08:16:54;;;;;;;37.10;16.55;;;;;;;15.14;51.18;100338.81;5033419;28;20025;-57
2021/11/04 08:19:20;;;;;;;33.65;16.10;;;;;;;15.19;51.18;100330.22;5033488;28;20021;-59
2021/11/04 08:21:45;;;;;;;32.00;15.23;;;;;;;15.23;49.88;100334.25;5014638;28;20161;-58
2021/11/04 08:24:11;;;;;;;39.85;15.43;;;;;;;15.25;51.17;100341.16;5014375;28;20590;-59
2021/11/04 08:26:36;;;;;;;36.08;16.30;;;;;;;15.30;50.57;100343.34;5014179;28;20026;-58
2021/11/04 08:29:02;;;;;;;36.70;16.60;;;;;;;15.35;50.95;100340.97;5014059;28;20038;-58
2021/11/04 08:31:28;;;;;;;32.33;14.75;;;;;;;15.39;50.99;100348.53;4996521;28;20471;-58
2021/11/04 08:33:54;;;;;;;30.73;15.90;;;;;;;15.44;51.07;100351.56;5014301;28;20022;-57
2021/11/04 08:36:19;;;;;;;28.23;14.35;;;;;;;15.45;50.45;100347.00;5014130;28;20137;-58
2021/11/04 08:38:45;;;;;;;31.35;14.55;;;;;;;15.50;50.62;100347.38;5014391;28;20410;-58
2021/11/04 08:41:11;;;;;;;37.65;15.30;;;;;;;15.54;51.16;100357.66;5014247;28;20026;-59
2021/11/04 08:43:36;;;;;;;29.23;14.20;;;;;;;15.58;49.63;100359.00;5014551;28;20026;-58
2021/11/04 08:46:02;;;;;;;34.20;15.70;;;;;;;15.63;49.49;100361.19;5014267;28;20064;-57
2021/11/04 08:48:28;;;;;;;31.65;14.75;;;;;;;15.67;50.13;100363.34;5014262;28;20026;-58
2021/11/04 08:50:53;;;;;;;31.38;14.65;;;;;;;15.71;50.51;100369.25;5014483;28;20026;-58
2021/11/04 08:53:19;;;;;;;28.27;14.60;;;;;;;15.79;50.78;100376.50;5013911;28;20025;-58
2021/11/04 08:55:45;;;;;;;33.90;15.48;;;;;;;15.82;49.69;100362.63;5014340;28;20034;-58
2021/11/04 08:58:10;;;;;;;27.40;13.82;;;;;;;15.88;49.45;100370.06;4996739;28;20364;-58
2021/11/04 09:00:36;;;;;;;36.80;14.82;;;;;;;15.92;50.59;100368.66;5018037;28;20026;-58
2021/11/04 09:03:02;;;;;;;32.72;13.77;;;;;;;15.97;50.20;100382.53;5023899;28;20026;-58
2021/11/04 09:05:27;;;;;;;29.92;14.20;;;;;;;16.00;50.80;100385.69;5017821;28;20030;-59
2021/11/04 09:07:53;;;;;;;29.92;14.23;;;;;;;16.05;50.81;100377.06;5017826;28;20037;-58
2021/11/04 09:10:21;;;;;;;29.00;13.40;;;;;;;16.09;49.84;100389.19;5017991;28;20097;-58
2021/11/04 09:12:46;;;;;;;23.35;12.23;;;;;;;16.14;50.46;100382.25;5017711;28;20037;-57
2021/11/04 09:15:13;;;;;;;25.83;13.18;;;;;;;16.22;49.52;100379.50;5017815;28;20074;-57
2021/11/04 09:17:38;;;;;;;34.80;14.77;;;;;;;16.31;50.18;100385.72;5000140;28;20030;-58
2021/11/04 09:20:05;;;;;;;27.27;13.55;;;;;;;16.38;50.37;100380.47;5017719;28;20475;-58
2021/11/04 09:22:33;;;;;;;29.27;14.05;;;;;;;16.37;49.02;100382.31;5017041;28;20483;-58
2021/11/04 09:24:58;;;;;;;24.85;13.50;;;;;;;16.38;50.00;100389.41;5017880;28;20445;-58
2021/11/04 09:27:24;;;;;;;26.73;13.02;;;;;;;16.39;49.05;100384.84;5000083;28;20068;-58
2021/11/04 09:29:50;;;;;;;24.10;13.32;;;;;;;16.44;50.47;100388.72;5017050;28;20064;-58
2021/11/04 09:32:15;;;;;;;30.70;13.73;;;;;;;16.50;49.90;100387.97;5017516;28;20360;-58
2021/11/04 09:34:41;;;;;;;32.40;14.38;;;;;;;16.54;50.08;100392.03;5017192;28;20117;-59
2021/11/04 09:37:07;;;;;;;31.05;14.73;;;;;;;16.68;49.10;100390.44;4988554;28;20053;-58
2021/11/04 09:39:36;;;;;;;32.58;14.35;;;;;;;16.68;49.86;100396.69;4997540;28;20101;-59
2021/11/04 09:42:05;;;;;;;31.50;14.85;;;;;;;16.70;50.07;100399.19;4997323;28;20019;-58
2021/11/04 09:44:30;;;;;;;29.20;14.82;;;;;;;16.69;50.23;100403.81;4979950;28;20045;-57
2021/11/04 09:46:56;;;;;;;33.50;15.02;;;;;;;16.81;49.31;100402.34;4997155;28;20030;-57
2021/11/04 09:49:22;;;;;;;29.23;14.40;;;;;;;16.88;49.43;100406.03;4997429;28;20475;-58
2021/11/04 09:51:47;;;;;;;33.70;14.38;;;;;;;16.96;50.14;100412.38;4980110;28;20026;-58
2021/11/04 09:54:13;;;;;;;35.25;15.23;;;;;;;16.91;49.18;100401.28;4997217;28;20119;-58
2021/11/04 09:56:39;;;;;;;30.50;14.70;;;;;;;16.94;49.46;100417.16;4997217;28;20096;-57
2021/11/04 09:59:05;;;;;;;30.65;15.00;;;;;;;16.95;49.08;100419.66;4997398;28;20030;-58
2021/11/04 10:01:32;;;;;;;33.85;15.55;;;;;;;16.96;48.32;100415.09;4997627;28;20123;-58
2021/11/04 10:04:00;;;;;;;28.42;13.18;;;;;;;16.95;49.47;100424.22;4980695;28;20124;-58
2021/11/04 10:06:31;;;;;;;26.88;13.55;;;;;;;16.98;48.86;100431.97;4980012;28;20026;-58
2021/11/04 10:09:04;;;;;;;28.70;12.75;;;;;;;16.99;48.78;100434.53;4997232;28;20423;-58
2021/11/04 10:11:35;;;;;;;28.10;13.32;;;;;;;17.02;49.18;100431.47;4996955;28;20026;-58
2021/11/04 10:14:03;;;;;;;22.08;12.02;;;;;;;17.05;49.24;100432.97;4995740;28;20034;-58
2021/11/04 10:16:30;;;;;;;27.52;13.25;;;;;;;17.09;48.36;100431.56;4996827;28;20402;-58
2021/11/04 10:18:56;;;;;;;28.98;13.07;;;;;;;17.15;49.76;100431.69;4997016;28;20026;-58
2021/11/04 10:21:26;;;;;;;24.85;11.60;;;;;;;17.24;49.27;100435.16;4997192;28;20053;-58
2021/11/04 10:23:52;;;;;;;22.33;12.77;;;;;;;17.30;48.67;100432.59;4996707;28;20038;-58
2021/11/04 10:26:25;;;;;;;24.52;12.50;;;;;;;17.34;48.16;100442.00;4996934;28;20499;-58
2021/11/04 10:28:58;;;;;;;24.30;12.10;;;;;;;17.34;48.78;100442.00;4979513;28;20117;-58
2021/11/04 10:31:24;;;;;;;26.63;13.68;;;;;;;17.35;48.34;100451.00;4996973;28;20022;-58
2021/11/04 10:33:51;;;;;;;25.40;12.20;;;;;;;17.40;48.65;100446.72;4979141;28;20049;-58
2021/11/04 10:36:19;;;;;;;21.90;12.27;;;;;;;17.48;48.55;100448.50;5000768;28;20082;-58
2021/11/04 10:38:46;;;;;;;25.20;10.68;;;;;;;17.56;48.02;100444.94;5016758;28;20057;-58
2021/11/04 10:41:20;;;;;;;24.65;10.45;;;;;;;17.61;48.78;100439.78;5016052;28;20057;-58
2021/11/04 10:43:46;;;;;;;20.88;10.48;;;;;;;17.51;48.87;100442.72;5016316;28;20041;-58
2021/11/04 10:46:13;;;;;;;18.92;11.07;;;;;;;17.39;48.94;100445.00;5015594;28;20022;-58
2021/11/04 10:48:41;;;;;;;29.33;13.35;;;;;;;17.34;49.21;100443.88;5015624;28;20502;-58
2021/11/04 10:51:11;;;;;;;19.00;10.65;;;;;;;17.37;48.57;100451.63;4998231;28;20105;-58
2021/11/04 10:53:36;;;;;;;19.60;11.25;;;;;;;17.34;48.92;100455.56;5015927;28;20026;-58
2021/11/04 10:56:08;;;;;;;19.00;11.20;;;;;;;17.28;48.80;100452.75;5015871;28;20032;-58
2021/11/04 10:58:33;;;;;;;22.67;12.00;;;;;;;17.20;49.59;100450.94;5015899;28;20029;-58
2021/11/04 11:01:00;;;;;;;21.13;11.55;;;;;;;17.12;49.06;100442.03;4997936;28;20109;-58
2021/11/04 11:03:27;;;;;;;23.23;11.48;;;;;;;17.08;49.03;100448.84;4998229;28;20080;-59
2021/11/04 11:05:57;;;;;;;21.40;11.25;;;;;;;16.99;48.61;100436.38;5015691;28;20076;-59
2021/11/04 11:08:24;;;;;;;21.77;12.48;;;;;;;16.98;48.36;100461.75;5015076;28;20021;-58